createdAt,value
2023-03-06T00:12:27.738Z,0.53
2023-03-06T00:13:27.816Z,0.52
2023-03-06T00:14:27.910Z,0.52
2023-03-06T00:15:28.001Z,0.53
2023-03-06T00:16:28.148Z,0.52
2023-03-06T00:17:28.187Z,0.53
2023-03-06T00:18:28.267Z,0.52
2023-03-06T00:19:28.354Z,0.53
2023-03-06T00:20:28.879Z,0.52
2023-03-06T00:21:28.550Z,0.53
2023-03-06T00:22:28.636Z,0.52
2023-03-06T00:23:28.734Z,0.52
2023-03-06T00:24:28.832Z,0.52
2023-03-06T00:25:28.939Z,0.52
2023-03-06T00:26:29.033Z,0.53
2023-03-06T00:27:29.121Z,0.52
2023-03-06T00:28:29.308Z,0.52
2023-03-06T00:29:29.369Z,0.52
2023-03-06T00:30:29.381Z,0.52
2023-03-06T00:31:29.506Z,0.52
2023-03-06T00:32:29.603Z,0.52
2023-03-06T00:33:29.676Z,0.52
2023-03-06T00:34:29.749Z,0.52
2023-03-06T00:35:29.848Z,0.53
2023-03-06T00:36:29.933Z,0.52
2023-03-06T00:37:30.039Z,0.53
2023-03-06T00:38:30.126Z,0.52
2023-03-06T00:39:30.236Z,0.52
2023-03-06T00:40:30.321Z,0.52
2023-03-06T00:41:30.407Z,0.53
2023-03-06T00:42:30.498Z,0.52
2023-03-06T00:43:30.594Z,0.53
2023-03-06T00:44:30.681Z,0.52
2023-03-06T00:45:30.790Z,0.53
2023-03-06T00:46:30.873Z,0.52
2023-03-06T00:47:30.964Z,0.52
2023-03-06T00:48:31.048Z,0.52
2023-03-06T00:49:31.151Z,0.52
2023-03-06T00:50:31.237Z,0.52
2023-03-06T00:51:31.400Z,0.53
2023-03-06T00:52:31.422Z,0.52
2023-03-06T00:53:31.509Z,0.52
2023-03-06T00:54:31.603Z,0.52
2023-03-06T00:55:31.704Z,0.53
2023-03-06T00:56:31.797Z,0.52
2023-03-06T00:57:31.886Z,0.52
2023-03-06T00:58:32.051Z,0.52
2023-03-06T00:59:32.080Z,0.52
2023-03-06T01:00:32.163Z,0.52
2023-03-06T01:01:32.261Z,0.51
2023-03-06T01:02:32.380Z,0.51
2023-03-06T01:03:32.458Z,0.52
2023-03-06T01:04:32.550Z,0.52
2023-03-06T01:05:32.639Z,0.52
2023-03-06T01:06:32.720Z,0.52
2023-03-06T01:07:32.819Z,0.51
2023-03-06T01:08:32.916Z,0.52
2023-03-06T01:09:33.015Z,0.52
2023-03-06T01:10:33.110Z,0.52
2023-03-06T01:11:33.202Z,0.52
2023-03-06T02:00:37.793Z,0.52
2023-03-06T02:01:37.896Z,0.52
2023-03-06T02:02:38.012Z,0.52
2023-03-06T02:03:38.070Z,0.52
2023-03-06T02:05:38.240Z,0.52
2023-03-06T02:06:38.325Z,0.52
2023-03-06T02:07:38.419Z,0.52
2023-03-06T02:08:38.516Z,0.52
2023-03-06T02:09:38.617Z,0.52
2023-03-06T02:10:38.699Z,0.52
2023-03-06T02:11:38.895Z,0.52
2023-03-06T02:12:38.874Z,0.51
2023-03-06T02:13:38.968Z,0.52
2023-03-06T03:56:47.725Z,0.56
2023-03-06T03:58:47.967Z,0.57
2023-03-06T03:59:47.826Z,0.56
2023-03-06T04:00:47.872Z,0.56
2023-03-06T04:01:47.943Z,0.55
2023-03-06T04:02:47.960Z,0.56
2023-03-06T04:03:48.019Z,0.56
2023-03-06T04:04:48.099Z,0.56
2023-03-06T04:05:48.130Z,0.56
2023-03-06T04:06:48.175Z,0.57
2023-03-06T04:07:48.240Z,0.57
2023-03-06T04:08:48.310Z,0.57
2023-03-06T04:09:48.342Z,0.57
2023-03-06T04:10:48.404Z,0.57
2023-03-06T04:11:48.515Z,0.56
2023-03-06T04:12:48.516Z,0.55
2023-03-06T04:13:48.561Z,0.57
2023-03-06T04:14:48.611Z,0.57
2023-03-06T06:51:57.760Z,2.07
2023-03-06T06:52:57.841Z,2.13
2023-03-06T06:53:57.909Z,2.27
2023-03-06T06:54:57.988Z,2.43
2023-03-06T06:55:58.062Z,2.50
2023-03-06T06:56:58.158Z,2.65
2023-03-06T06:57:58.224Z,2.76
2023-03-06T06:59:13.951Z,2.97
2023-03-06T06:59:59.296Z,2.98
2023-03-06T07:00:58.297Z,3.02
2023-03-06T07:01:58.320Z,3.15
2023-03-06T07:02:58.333Z,3.39
2023-03-06T07:03:58.401Z,3.84
2023-03-06T07:05:05.383Z,3.94
2023-03-06T07:05:59.384Z,3.95
2023-03-06T07:06:58.385Z,4.00
2023-03-06T07:07:58.388Z,4.17
2023-03-06T07:08:58.393Z,4.53
2023-03-06T07:09:58.421Z,5.16
2023-03-06T07:10:58.434Z,5.49
2023-03-06T07:11:58.432Z,5.96
2023-03-06T07:12:58.432Z,6.48
2023-03-06T07:13:58.465Z,7.45
2023-03-06T07:14:58.499Z,8.39
2023-03-06T07:15:59.488Z,8.03
2023-03-06T07:16:58.618Z,8.17
2023-03-06T07:17:58.688Z,9.07
2023-03-06T07:18:58.714Z,9.25
2023-03-06T07:19:58.775Z,9.26
2023-03-06T07:21:01.280Z,9.64
2023-03-06T07:21:59.016Z,12.01
2023-03-06T07:22:59.048Z,11.14
2023-03-06T07:23:59.105Z,11.95
2023-03-06T07:24:59.141Z,12.62
2023-03-06T07:26:00.061Z,13.46
2023-03-06T07:26:59.547Z,14.23
2023-03-06T07:27:59.279Z,13.31
2023-03-06T07:28:59.300Z,11.54
2023-03-06T07:29:59.345Z,10.52
2023-03-06T07:30:59.417Z,7.68
2023-03-06T07:31:59.474Z,6.94
2023-03-06T07:32:59.534Z,5.72
2023-03-06T07:33:59.608Z,4.97
2023-03-06T07:35:18.758Z,4.40
2023-03-06T07:36:00.727Z,4.21
2023-03-06T07:36:59.756Z,3.75
2023-03-06T07:37:59.695Z,3.42
2023-03-06T07:38:59.707Z,3.06
2023-03-06T07:39:59.722Z,2.79
2023-03-06T07:40:59.728Z,3.14
2023-03-06T07:41:59.784Z,3.39
2023-03-06T07:43:16.926Z,3.49
2023-03-06T07:44:00.782Z,3.50
2023-03-06T07:44:59.772Z,3.56
2023-03-06T07:45:59.837Z,3.70
2023-03-06T07:46:59.787Z,3.86
2023-03-06T07:48:00.541Z,4.09
2023-03-06T07:48:59.820Z,4.36
2023-03-06T07:49:59.843Z,4.44
2023-03-06T07:50:59.844Z,4.52
2023-03-06T07:51:59.902Z,4.47
2023-03-06T07:52:59.975Z,4.57
2023-03-06T07:54:00.052Z,4.61
2023-03-06T07:55:01.053Z,4.88
2023-03-06T07:56:00.182Z,5.27
2023-03-06T07:57:00.244Z,5.50
2023-03-06T07:58:00.308Z,5.54
2023-03-06T07:59:00.349Z,5.59
2023-03-06T08:00:00.539Z,5.83
2023-03-06T08:01:00.456Z,5.86
2023-03-06T08:02:00.516Z,6.01
2023-03-06T08:03:00.624Z,6.15
2023-03-06T08:04:00.628Z,6.37
2023-03-06T08:05:00.674Z,6.49
2023-03-06T08:06:00.700Z,7.01
2023-03-06T08:07:00.729Z,7.31
2023-03-06T08:08:00.767Z,7.34
2023-03-06T08:09:00.811Z,7.64
2023-03-06T08:10:00.829Z,7.84
2023-03-06T08:11:00.872Z,8.11
2023-03-06T08:12:00.909Z,8.42
2023-03-06T08:13:00.931Z,8.65
2023-03-06T08:14:01.545Z,8.88
2023-03-06T08:15:01.165Z,9.25
2023-03-06T08:16:01.018Z,9.38
2023-03-06T08:17:01.010Z,9.90
2023-03-06T08:18:02.005Z,6.67
2023-03-06T08:19:01.047Z,4.59
2023-03-06T08:20:01.092Z,3.58
2023-03-06T08:21:01.152Z,2.77
2023-03-06T08:55:03.305Z,0.50
2023-03-06T08:56:03.442Z,0.50
2023-03-06T08:57:03.456Z,0.51
2023-03-06T08:58:03.534Z,0.51
2023-03-06T08:59:03.620Z,0.52
2023-03-06T09:00:03.715Z,0.51
2023-03-06T09:01:03.885Z,0.51
2023-03-06T09:02:03.896Z,0.50
2023-03-06T09:03:03.952Z,0.52
2023-03-06T09:04:04.039Z,0.50
2023-03-06T09:05:04.131Z,0.51
2023-03-06T09:06:04.217Z,0.50
2023-03-06T09:08:04.443Z,0.50
2023-03-06T09:09:04.577Z,0.50
2023-03-06T09:10:04.473Z,0.51
2023-03-06T09:11:04.544Z,0.50
2023-03-06T09:12:04.629Z,0.50
2023-03-06T09:13:04.685Z,0.52
2023-03-06T09:14:04.761Z,0.62
2023-03-06T09:16:04.892Z,0.98
2023-03-06T09:17:04.992Z,1.26
2023-03-06T09:18:05.127Z,1.43
2023-03-06T09:19:05.164Z,1.74
2023-03-06T09:20:05.239Z,2.07
2023-03-06T09:42:06.279Z,4.52
2023-03-06T09:43:06.315Z,5.25
2023-03-06T09:44:06.401Z,5.69
2023-03-06T09:45:06.475Z,6.23
2023-03-06T09:46:06.553Z,6.90
2023-03-06T09:47:06.583Z,7.50
2023-03-06T09:48:06.627Z,8.41
2023-03-06T09:49:06.757Z,8.77
2023-03-06T09:50:06.706Z,9.94
2023-03-06T09:51:06.819Z,10.58
2023-03-06T09:52:06.786Z,7.47
2023-03-06T09:53:06.927Z,3.69
2023-03-06T09:54:06.898Z,1.92
2023-03-06T09:55:06.930Z,1.19
2023-03-06T09:56:06.993Z,0.80
2023-03-06T09:57:07.121Z,0.72
2023-03-06T09:58:07.579Z,0.75
2023-03-06T09:59:07.225Z,0.87
2023-03-06T10:00:07.360Z,1.09
2023-03-06T10:01:07.353Z,1.36
2023-03-06T10:02:07.450Z,1.60
2023-03-06T10:03:07.503Z,1.78
2023-03-06T10:04:07.430Z,1.93
2023-03-06T10:05:07.515Z,2.22
2023-03-06T10:06:07.558Z,2.57
2023-03-06T10:07:07.642Z,2.89
2023-03-06T10:08:07.708Z,3.26
2023-03-06T10:09:07.789Z,3.71
2023-03-06T10:10:07.802Z,4.10
2023-03-06T10:11:07.860Z,4.51
2023-03-06T10:12:07.889Z,5.00
2023-03-06T10:13:07.927Z,5.47
2023-03-06T10:14:07.950Z,6.15
2023-03-06T10:15:07.977Z,6.74
2023-03-06T10:16:08.126Z,7.26
2023-03-06T10:17:08.027Z,8.48
2023-03-06T10:18:08.051Z,11.21
2023-03-06T10:19:08.028Z,12.78
2023-03-06T10:20:08.031Z,13.93
2023-03-06T10:21:18.651Z,14.76
2023-03-06T10:22:09.030Z,14.80
2023-03-06T10:23:08.106Z,14.80
2023-03-06T10:24:08.027Z,14.70
2023-03-06T10:25:08.082Z,15.16
2023-03-06T10:26:08.049Z,15.85
2023-03-06T10:27:08.044Z,16.40
2023-03-06T10:28:09.113Z,16.42
2023-03-06T10:29:08.022Z,16.59
2023-03-06T10:30:08.021Z,16.76
2023-03-06T10:31:08.141Z,17.91
2023-03-06T10:32:08.044Z,19.34
2023-03-06T10:33:08.084Z,20.11
2023-03-06T10:34:08.025Z,21.45
2023-03-06T10:35:08.032Z,22.46
2023-03-06T10:36:08.019Z,22.86
2023-03-06T10:37:08.016Z,23.82
2023-03-06T10:39:08.010Z,25.39
2023-03-06T10:40:08.576Z,25.45
2023-03-06T10:41:08.022Z,25.78
2023-03-06T10:42:08.074Z,26.87
2023-03-06T10:43:11.744Z,28.85
2023-03-06T10:44:08.006Z,25.61
2023-03-06T10:45:08.000Z,26.49
2023-03-06T10:46:08.019Z,28.07
2023-03-06T10:47:07.965Z,31.34
2023-03-06T10:48:07.959Z,36.35
2023-03-06T10:49:07.958Z,37.50
2023-03-06T11:39:10.133Z,163.44
2023-03-06T11:40:10.087Z,166.99
2023-03-06T11:41:10.095Z,184.36
2023-03-06T11:42:10.130Z,189.76
2023-03-06T11:43:10.180Z,186.41
2023-03-06T11:44:10.314Z,189.97
2023-03-06T11:45:10.295Z,199.29
2023-03-06T11:46:10.356Z,215.32
2023-03-06T11:47:10.390Z,228.04
2023-03-06T11:48:10.431Z,223.48
2023-03-06T11:49:10.476Z,230.85
2023-03-06T11:50:10.522Z,236.50
2023-03-06T11:51:10.568Z,245.55
2023-03-06T11:52:10.605Z,276.59
2023-03-06T11:53:11.136Z,293.95
2023-03-06T11:54:10.711Z,283.54
2023-03-06T11:55:10.723Z,291.97
2023-03-06T11:56:10.751Z,289.71
2023-03-06T11:57:10.796Z,306.50
2023-03-06T11:58:10.819Z,323.51
2023-03-06T11:59:21.763Z,307.88
2023-03-06T12:00:11.119Z,309.91
2023-03-06T12:01:11.069Z,312.35
2023-03-06T12:02:11.209Z,309.20
2023-03-06T12:03:11.100Z,284.57
2023-03-06T12:05:11.200Z,265.00
2023-03-06T12:06:11.212Z,258.99
2023-03-06T12:07:11.278Z,251.88
2023-03-06T12:08:11.340Z,250.84
2023-03-06T12:09:11.401Z,235.98
2023-03-06T12:10:11.452Z,226.15
2023-03-06T12:11:11.519Z,225.55
2023-03-06T12:12:11.577Z,214.53
2023-03-06T12:13:11.643Z,213.29
2023-03-06T12:14:11.715Z,206.12
2023-03-06T12:15:11.769Z,202.11
2023-03-06T12:16:12.671Z,200.26
2023-03-06T12:17:11.898Z,196.46
2023-03-06T12:19:11.997Z,189.04
2023-03-06T12:20:12.010Z,184.94
2023-03-06T12:21:12.038Z,182.82
2023-03-06T12:22:12.076Z,181.75
2023-03-06T12:23:15.730Z,167.37
2023-03-06T12:24:12.073Z,163.51
2023-03-06T12:25:12.078Z,124.26
2023-03-06T12:26:12.070Z,113.90
2023-03-06T12:27:12.080Z,101.17
2023-03-06T12:28:12.075Z,82.53
2023-03-06T12:29:12.101Z,85.97
2023-03-06T12:30:12.159Z,76.02
2023-03-06T12:31:12.097Z,75.65
2023-03-06T12:32:12.243Z,74.18
2023-03-06T13:25:13.678Z,30.43
2023-03-06T13:29:13.766Z,28.92
2023-03-06T13:31:26.567Z,28.39
2023-03-06T13:32:14.371Z,28.40
2023-03-06T13:33:13.379Z,28.29
2023-03-06T13:34:13.387Z,28.08
2023-03-06T13:35:13.394Z,27.97
2023-03-06T13:36:13.370Z,27.25
2023-03-06T13:37:13.387Z,27.51
2023-03-06T13:38:14.179Z,26.17
2023-03-06T13:39:13.388Z,26.42
2023-03-06T13:40:13.455Z,26.70
2023-03-06T13:41:13.421Z,26.30
2023-03-06T13:42:13.433Z,25.92
2023-03-06T13:43:13.457Z,26.36
2023-03-06T13:44:13.526Z,25.02
2023-03-06T13:45:13.580Z,25.23
2023-03-06T13:46:13.655Z,24.91
2023-03-06T13:47:13.716Z,24.66
2023-03-06T13:48:37.403Z,24.71
2023-03-06T13:49:14.789Z,24.73
2023-03-06T13:50:13.806Z,24.24
2023-03-06T13:51:13.808Z,24.60
2023-03-06T13:52:13.821Z,23.81
2023-03-06T13:53:13.826Z,23.69
2023-03-06T13:54:13.912Z,24.48
2023-03-06T13:55:13.830Z,23.21
2023-03-06T13:56:13.841Z,23.09
2023-03-06T13:57:13.856Z,22.50
2023-03-06T13:58:13.889Z,22.84
2023-03-06T13:59:14.337Z,22.27
2023-03-06T14:00:14.141Z,22.67
2023-03-06T14:01:14.126Z,22.11
2023-03-06T14:02:14.386Z,21.49
2023-03-06T14:03:14.238Z,21.53
2023-03-06T14:04:14.319Z,21.70
2023-03-06T14:05:14.385Z,21.66
2023-03-06T14:06:14.464Z,21.25
2023-03-06T14:07:14.531Z,21.27
2023-03-06T14:08:14.615Z,20.91
2023-03-06T14:09:14.680Z,20.76
2023-03-06T14:10:14.748Z,20.75
2023-03-06T14:11:14.829Z,20.39
2023-03-06T14:12:14.890Z,19.88
2023-03-06T14:13:14.980Z,20.11
2023-03-06T14:14:15.038Z,19.92
2023-03-06T14:15:15.114Z,19.70
2023-03-06T14:16:15.276Z,19.57
2023-03-06T14:17:15.281Z,19.49
2023-03-06T14:18:15.342Z,19.04
2023-03-06T14:19:15.435Z,19.08
2023-03-06T14:20:15.540Z,18.74
2023-03-06T14:21:15.580Z,18.55
2023-03-06T14:22:15.652Z,18.63
2023-03-06T14:23:15.739Z,18.73
2023-03-06T14:24:15.802Z,18.18
2023-03-06T14:25:15.878Z,18.22
2023-03-06T14:26:15.955Z,18.05
2023-03-06T14:27:16.030Z,17.91
2023-03-06T14:53:18.040Z,15.13
2023-03-06T14:54:18.236Z,14.82
2023-03-06T14:55:18.166Z,14.73
2023-03-06T14:56:18.243Z,15.12
2023-03-06T14:57:18.309Z,14.48
2023-03-06T14:58:18.403Z,14.44
2023-03-06T14:59:18.433Z,14.40
2023-03-06T15:01:18.590Z,13.98
2023-03-06T15:02:18.649Z,14.02
2023-03-06T15:03:18.720Z,13.86
2023-03-06T15:04:18.821Z,14.23
2023-03-06T15:05:18.975Z,13.69
2023-03-06T17:11:23.291Z,7.25
2023-03-06T17:12:23.342Z,7.23
2023-03-06T17:13:23.380Z,7.36
2023-03-06T17:14:23.428Z,7.11
2023-03-06T17:15:23.480Z,7.07
2023-03-06T17:16:23.504Z,7.14
2023-03-06T17:17:23.550Z,7.11
2023-03-06T17:18:23.587Z,6.91
2023-03-06T17:19:23.637Z,7.02
2023-03-06T17:20:23.690Z,7.09
2023-03-06T17:21:23.717Z,6.88
2023-03-06T17:22:23.765Z,6.99
2023-03-06T17:23:23.810Z,6.86
2023-03-06T17:24:23.865Z,6.78
2023-03-06T17:25:23.908Z,6.79
2023-03-06T17:26:23.953Z,6.73
2023-03-06T17:27:23.999Z,6.75
2023-03-06T17:28:24.048Z,6.80
2023-03-06T17:29:24.072Z,6.58
2023-03-06T17:30:24.139Z,6.54
2023-03-06T17:31:24.288Z,6.73
2023-03-06T17:32:24.302Z,6.61
2023-03-06T17:33:24.278Z,6.46
2023-03-06T17:34:24.739Z,6.36
2023-03-06T17:35:24.418Z,6.45
2023-03-06T17:36:24.504Z,6.47
2023-03-06T17:37:24.546Z,6.36
2023-03-06T17:38:24.514Z,6.35
2023-03-06T17:39:24.574Z,6.19
2023-03-06T17:40:24.614Z,6.05
2023-03-06T17:41:24.673Z,6.12
2023-03-06T17:42:24.719Z,6.15
2023-03-06T17:43:24.772Z,6.09
2023-03-06T17:44:24.815Z,6.10
2023-03-06T17:45:24.876Z,6.15
2023-03-06T17:46:24.948Z,6.14
2023-03-06T17:47:24.973Z,6.06
2023-03-06T17:48:25.019Z,6.07
2023-03-06T17:49:25.119Z,6.04
2023-03-06T17:50:25.136Z,6.13
2023-03-06T17:51:25.181Z,5.97
2023-03-06T17:52:25.244Z,5.91
2023-03-06T17:53:25.291Z,6.00
2023-03-06T17:54:25.346Z,5.98
2023-03-06T17:55:25.399Z,5.99
2023-03-06T17:56:25.785Z,5.88
2023-03-06T17:57:25.508Z,5.95
2023-03-06T20:07:33.345Z,3.64
2023-03-06T20:08:33.413Z,3.66
2023-03-06T20:09:33.491Z,3.69
2023-03-06T22:17:43.387Z,2.51
2023-03-06T22:25:43.346Z,2.42
2023-03-06T22:26:43.508Z,2.45
2023-03-06T22:27:43.504Z,2.46
2023-03-06T22:28:43.585Z,2.42
2023-03-06T22:29:43.734Z,2.42
2023-03-06T22:30:43.806Z,2.41
2023-03-06T22:31:44.428Z,2.43
2023-03-06T22:32:43.969Z,2.40
2023-03-06T22:33:43.992Z,2.40
2023-03-06T22:34:44.887Z,2.39
2023-03-06T22:35:44.152Z,2.38
2023-03-06T22:36:44.234Z,2.38
2023-03-06T22:37:44.395Z,2.37
2023-03-06T22:38:44.390Z,2.35
2023-03-06T22:39:44.468Z,2.39
2023-03-06T22:40:44.586Z,2.34
2023-03-06T22:41:44.618Z,2.37
2023-03-06T22:42:44.701Z,2.36
2023-03-06T22:43:44.786Z,2.35
2023-03-06T22:44:44.859Z,2.33
2023-03-06T22:45:45.013Z,2.35
2023-03-06T22:46:45.033Z,2.35
2023-03-06T22:47:45.103Z,2.33
2023-03-06T22:48:45.180Z,2.32
2023-03-06T22:49:45.243Z,2.31
2023-03-06T22:50:45.341Z,2.33
2023-03-06T22:51:45.405Z,2.32
2023-03-06T22:52:45.494Z,2.27
2023-03-06T22:53:45.639Z,2.27
2023-03-06T22:54:45.898Z,2.25
2023-03-06T22:55:45.739Z,2.26
2023-03-06T22:56:45.824Z,2.28
2023-03-06T22:57:45.901Z,2.25
2023-03-06T22:58:45.970Z,2.25
2023-03-06T22:59:46.053Z,2.24
2023-03-06T23:00:46.129Z,2.23
2023-03-06T23:01:46.272Z,2.23
2023-03-06T23:02:46.295Z,2.25
